Time;durP1;ratioP1;P1;durP2;ratioP2;P2;SDS_P1;SDS_P2;PMS_P1;PMS_P2;Temp;Humidity;BMP_temperature;BMP_pressure;BME280_temperature;BME280_humidity;BME280_pressure;Samples;Min_cycle;Max_cycle;Signal;HPM_P1;HPM_P2
2023/02/19 00:01:02;;;;;;;608.37;574.30;;;10.50;99.90;;;;;;5061669;28;20451;-81
2023/02/19 00:03:30;;;;;;;606.93;573.07;;;10.50;99.90;;;;;;5061912;28;20863;-81
2023/02/19 00:05:57;;;;;;;607.30;574.47;;;10.50;99.90;;;;;;5061091;28;20471;-82
2023/02/19 00:08:24;;;;;;;615.93;581.27;;;10.50;99.90;;;;;;5061814;28;20455;-82
2023/02/19 00:10:52;;;;;;;611.30;576.53;;;10.40;99.90;;;;;;5061504;28;20523;-82
2023/02/19 00:13:18;;;;;;;614.40;580.00;;;10.50;99.90;;;;;;5061465;28;20499;-82
2023/02/19 00:15:45;;;;;;;611.77;577.17;;;10.40;99.90;;;;;;5061670;28;20902;-82
2023/02/19 00:18:12;;;;;;;615.20;580.00;;;10.40;99.90;;;;;;5061731;28;20448;-81
2023/02/19 00:20:40;;;;;;;613.50;577.80;;;10.40;99.90;;;;;;5061745;28;20965;-81
2023/02/19 00:23:06;;;;;;;619.87;584.03;;;10.40;99.90;;;;;;5061714;28;20486;-82
2023/02/19 00:25:36;;;;;;;613.80;578.60;;;10.30;99.90;;;;;;5060781;28;20849;-81
2023/02/19 00:28:03;;;;;;;606.63;572.37;;;10.40;99.90;;;;;;5061286;28;20452;-82
2023/02/19 00:30:30;;;;;;;596.13;563.67;;;10.30;99.90;;;;;;5062037;28;20475;-82
2023/02/19 00:32:57;;;;;;;596.77;563.40;;;10.40;99.90;;;;;;5061469;28;20471;-82
2023/02/19 00:35:24;;;;;;;590.87;558.60;;;10.40;99.90;;;;;;5060734;28;20971;-83
2023/02/19 00:37:52;;;;;;;586.37;554.47;;;10.40;99.90;;;;;;5061667;28;20451;-82
2023/02/19 00:40:19;;;;;;;584.33;552.87;;;10.30;99.90;;;;;;5061314;28;20451;-83
2023/02/19 00:42:45;;;;;;;577.73;547.30;;;10.40;99.90;;;;;;5061557;28;20856;-81
2023/02/19 00:45:12;;;;;;;577.70;547.00;;;10.40;99.90;;;;;;5060850;28;20458;-82
2023/02/19 00:47:39;;;;;;;573.03;543.57;;;10.40;99.90;;;;;;5061695;28;20475;-82
2023/02/19 00:50:06;;;;;;;569.03;540.43;;;10.40;99.90;;;;;;5060641;28;20452;-81
2023/02/19 00:52:32;;;;;;;550.70;524.30;;;10.40;99.90;;;;;;5041032;28;20471;-83
2023/02/19 00:55:00;;;;;;;530.10;506.10;;;10.50;99.90;;;;;;5041076;28;20452;-81
2023/02/19 00:57:27;;;;;;;534.73;510.27;;;10.50;99.90;;;;;;5060572;28;20458;-82
2023/02/19 00:59:54;;;;;;;527.07;503.00;;;10.50;99.90;;;;;;5061115;28;20457;-82
2023/02/19 01:02:21;;;;;;;525.57;501.40;;;10.50;99.90;;;;;;5060955;28;20471;-84
2023/02/19 01:04:48;;;;;;;520.37;497.47;;;10.50;99.90;;;;;;5059997;28;20447;-81
2023/02/19 01:07:15;;;;;;;521.33;498.67;;;10.50;99.90;;;;;;5060689;28;20486;-81
2023/02/19 01:09:41;;;;;;;536.03;512.13;;;10.50;99.90;;;;;;5060795;28;20837;-82
2023/02/19 01:12:10;;;;;;;534.30;510.63;;;10.50;99.90;;;;;;5060614;28;20458;-82
2023/02/19 01:14:36;;;;;;;526.97;503.70;;;10.50;99.90;;;;;;5059838;28;20466;-82
2023/02/19 01:17:04;;;;;;;517.73;495.53;;;10.50;99.90;;;;;;5040625;28;20451;-82
2023/02/19 01:19:31;;;;;;;488.23;468.10;;;10.50;99.90;;;;;;5040371;28;20959;-81
2023/02/19 01:21:57;;;;;;;460.03;442.00;;;10.50;99.90;;;;;;5059147;28;20452;-81
2023/02/19 01:24:24;;;;;;;459.80;441.63;;;10.50;99.90;;;;;;5059971;28;20455;-82
2023/02/19 01:26:51;;;;;;;436.67;419.60;;;10.50;99.90;;;;;;5059705;28;20475;-81
2023/02/19 01:29:19;;;;;;;392.40;377.67;;;10.50;99.90;;;;;;5060131;28;20458;-82
2023/02/19 01:31:45;;;;;;;419.60;403.57;;;10.60;99.90;;;;;;5059575;28;20458;-82
2023/02/19 01:34:12;;;;;;;410.23;394.80;;;10.50;99.90;;;;;;5059430;28;20468;-83
2023/02/19 01:36:39;;;;;;;416.97;401.30;;;10.50;99.90;;;;;;5059453;28;20451;-81
2023/02/19 01:39:06;;;;;;;432.70;416.33;;;10.60;99.90;;;;;;5059645;28;20470;-82
2023/02/19 01:41:36;;;;;;;443.30;426.37;;;10.50;99.90;;;;;;5059789;28;20447;-82
2023/02/19 01:44:06;;;;;;;440.03;423.27;;;10.60;99.90;;;;;;5059128;28;20549;-82
2023/02/19 01:46:35;;;;;;;440.17;423.60;;;10.60;99.90;;;;;;5059477;28;20474;-82
2023/02/19 01:49:07;;;;;;;465.13;447.30;;;10.60;99.90;;;;;;5059672;28;20462;-81
2023/02/19 01:51:37;;;;;;;440.77;424.40;;;10.60;99.90;;;;;;5059521;28;20435;-81
2023/02/19 01:54:08;;;;;;;455.00;437.37;;;10.60;99.90;;;;;;5059960;28;20482;-81
2023/02/19 01:56:37;;;;;;;457.73;440.63;;;10.60;99.90;;;;;;5059260;28;20458;-82
2023/02/19 01:59:05;;;;;;;483.37;464.93;;;10.60;99.90;;;;;;5059372;28;20454;-82
2023/02/19 02:01:33;;;;;;;486.33;467.97;;;10.50;99.90;;;;;;5059059;28;20451;-81
2023/02/19 02:04:00;;;;;;;463.60;446.50;;;10.50;99.90;;;;;;5059109;28;20471;-82
2023/02/19 02:06:30;;;;;;;470.83;452.87;;;10.60;99.90;;;;;;5058247;28;20472;-81
2023/02/19 02:11:47;;;;;;;462.33;444.83;;;10.60;99.90;;;;;;5038946;28;20883;-82
2023/02/19 02:14:14;;;;;;;467.40;449.63;;;10.60;99.90;;;;;;5039506;28;20998;-82
2023/02/19 02:16:51;;;;;;;480.47;462.57;;;10.60;99.90;;;;;;5058967;28;20443;-81
2023/02/19 02:19:31;;;;;;;482.60;464.20;;;10.60;99.90;;;;;;5058945;28;20446;-82
2023/02/19 02:22:15;;;;;;;498.90;479.30;;;10.60;99.90;;;;;;5058906;28;20462;-81
2023/02/19 02:25:11;;;;;;;505.83;486.43;;;10.50;99.90;;;;;;5058395;28;20455;-82
2023/02/19 02:27:51;;;;;;;474.83;457.10;;;10.60;99.90;;;;;;5058697;28;20491;-81
2023/02/19 02:30:32;;;;;;;492.20;473.43;;;10.50;99.90;;;;;;5059090;28;20432;-82
2023/02/19 02:33:12;;;;;;;506.07;486.17;;;10.50;99.90;;;;;;5058833;28;20838;-80
2023/02/19 02:35:44;;;;;;;496.47;477.13;;;10.50;99.90;;;;;;5058696;28;20443;-82
2023/02/19 02:38:12;;;;;;;476.57;458.63;;;10.60;99.90;;;;;;5059130;28;20441;-82
2023/02/19 02:40:43;;;;;;;469.27;451.27;;;10.50;99.90;;;;;;5058953;28;20451;-81
2023/02/19 02:43:10;;;;;;;470.40;453.10;;;10.50;99.90;;;;;;5057970;28;20482;-82
2023/02/19 02:45:39;;;;;;;439.33;422.93;;;10.50;99.90;;;;;;5039206;28;20491;-82
2023/02/19 02:48:23;;;;;;;475.67;457.97;;;10.50;99.90;;;;;;5056347;28;20454;-82
2023/02/19 02:50:54;;;;;;;518.40;497.20;;;10.50;99.90;;;;;;5059605;28;20485;-82
2023/02/19 02:56:14;;;;;;;492.20;472.93;;;10.50;99.90;;;;;;5058908;28;20454;-82
2023/02/19 02:58:42;;;;;;;487.43;468.37;;;10.40;99.90;;;;;;5059299;28;20459;-82
2023/02/19 03:04:03;;;;;;;511.23;490.87;;;10.50;99.90;;;;;;5039121;28;20463;-82
2023/02/19 03:06:33;;;;;;;466.90;449.40;;;10.50;99.90;;;;;;5041127;28;20476;-82
2023/02/19 03:09:07;;;;;;;471.20;453.60;;;10.50;99.90;;;;;;5058568;28;20463;-82
2023/02/19 03:20:09;;;;;;;405.03;390.20;;;10.50;99.90;;;;;;5047773;28;20489;-82
2023/02/19 03:22:38;;;;;;;420.03;404.57;;;10.50;99.90;;;;;;5063694;28;20831;-83
2023/02/19 03:27:59;;;;;;;391.37;377.17;;;10.50;99.90;;;;;;5036600;28;20839;-82
2023/02/19 03:30:31;;;;;;;432.77;417.13;;;10.50;99.90;;;;;;5062105;28;20446;-81
2023/02/19 03:33:02;;;;;;;416.50;401.57;;;10.40;99.90;;;;;;5062513;28;20478;-82
2023/02/19 03:35:32;;;;;;;417.10;402.13;;;10.40;99.90;;;;;;5061506;28;20454;-82
2023/02/19 03:38:04;;;;;;;370.37;356.67;;;10.40;99.90;;;;;;5063275;28;20439;-84
2023/02/19 03:40:38;;;;;;;393.87;379.47;;;10.40;99.90;;;;;;5062180;28;20999;-83
2023/02/19 03:43:15;;;;;;;372.80;359.20;;;10.40;99.90;;;;;;5062202;28;20482;-82
2023/02/19 03:45:49;;;;;;;385.37;371.50;;;10.40;99.90;;;;;;5061918;28;20451;-82
2023/02/19 03:48:25;;;;;;;363.27;350.17;;;10.40;99.90;;;;;;5062551;28;20443;-82
2023/02/19 03:51:00;;;;;;;381.03;366.97;;;10.40;99.90;;;;;;5065167;28;20446;-82
2023/02/19 03:53:31;;;;;;;374.60;360.80;;;10.40;99.90;;;;;;5071587;28;20467;-81
2023/02/19 03:56:07;;;;;;;357.67;344.77;;;10.40;99.90;;;;;;5070643;28;20447;-81
2023/02/19 03:58:44;;;;;;;345.90;333.50;;;10.40;99.90;;;;;;5066192;28;20447;-82
2023/02/19 04:01:16;;;;;;;319.47;306.53;;;10.30;99.90;;;;;;5058173;28;20454;-83
2023/02/19 04:03:49;;;;;;;300.57;289.63;;;10.30;99.90;;;;;;5062043;28;20482;-82
2023/02/19 04:06:20;;;;;;;310.43;298.73;;;10.30;99.90;;;;;;5062656;28;20459;-82
2023/02/19 04:08:52;;;;;;;334.60;321.83;;;10.40;99.90;;;;;;5066847;28;20457;-82
2023/02/19 04:11:20;;;;;;;463.83;445.83;;;10.20;99.90;;;;;;5080636;28;20454;-82
2023/02/19 04:13:53;;;;;;;614.20;582.13;;;10.10;99.90;;;;;;5058313;28;20491;-82
2023/02/19 04:16:22;;;;;;;616.50;586.03;;;9.90;99.90;;;;;;5061636;28;20831;-81
2023/02/19 04:18:55;;;;;;;555.07;529.97;;;9.70;99.90;;;;;;5046897;28;20447;-81
2023/02/19 04:21:23;;;;;;;608.17;576.07;;;9.60;99.90;;;;;;5048715;28;20459;-82
2023/02/19 04:23:50;;;;;;;618.07;583.43;;;9.50;99.90;;;;;;5059566;28;20479;-80
2023/02/19 04:26:19;;;;;;;632.53;594.53;;;9.60;99.90;;;;;;5059263;28;20447;-81
2023/02/19 04:28:47;;;;;;;619.43;583.43;;;9.50;99.90;;;;;;5058926;28;20450;-81
2023/02/19 04:31:13;;;;;;;621.77;584.93;;;9.50;99.90;;;;;;5058589;28;20451;-80
2023/02/19 04:33:40;;;;;;;637.27;596.57;;;9.50;99.90;;;;;;5059290;28;20479;-80
2023/02/19 04:36:10;;;;;;;640.90;598.43;;;9.40;99.90;;;;;;5059635;28;20452;-81
2023/02/19 04:38:37;;;;;;;641.40;599.43;;;9.40;99.90;;;;;;5061208;28;20452;-80
2023/02/19 04:41:04;;;;;;;630.07;590.67;;;9.40;99.90;;;;;;5062387;28;20457;-81
2023/02/19 04:43:31;;;;;;;595.87;559.17;;;9.50;99.90;;;;;;5061610;28;20486;-82
2023/02/19 04:46:00;;;;;;;620.07;578.17;;;9.40;99.90;;;;;;5061958;28;20459;-82
2023/02/19 04:48:27;;;;;;;612.53;576.13;;;9.40;99.90;;;;;;5062861;28;20905;-81
2023/02/19 04:50:54;;;;;;;621.90;582.10;;;9.40;99.90;;;;;;5061390;28;20466;-82
2023/02/19 04:53:22;;;;;;;577.73;544.47;;;9.40;99.90;;;;;;5061862;28;20476;-81
2023/02/19 04:55:52;;;;;;;576.67;543.17;;;9.50;99.90;;;;;;5060694;28;20958;-82
2023/02/19 04:58:19;;;;;;;596.50;561.93;;;9.40;99.90;;;;;;5059672;28;20538;-81
2023/02/19 05:00:46;;;;;;;572.80;540.37;;;9.40;99.90;;;;;;5059234;28;20841;-81
2023/02/19 05:03:12;;;;;;;606.87;569.77;;;9.40;99.90;;;;;;5058695;28;20475;-80
2023/02/19 05:05:39;;;;;;;605.80;568.90;;;9.30;99.90;;;;;;5058947;28;20483;-82
2023/02/19 05:11:36;;;;;;;586.57;554.27;;;9.30;99.90;;;;;;4996847;28;20515;-81
2023/02/19 05:14:03;;;;;;;567.10;537.03;;;9.40;99.90;;;;;;5039450;28;20995;-82
2023/02/19 05:16:30;;;;;;;605.40;570.53;;;9.40;99.90;;;;;;5045218;28;20454;-82
2023/02/19 05:18:57;;;;;;;593.93;560.27;;;9.30;99.90;;;;;;5059589;28;20451;-82
2023/02/19 05:21:23;;;;;;;599.33;564.30;;;9.40;99.90;;;;;;5058981;28;20991;-82
2023/02/19 05:23:50;;;;;;;586.87;553.10;;;9.30;99.90;;;;;;5058739;28;20467;-83
2023/02/19 05:26:20;;;;;;;585.77;552.20;;;9.50;99.90;;;;;;5058540;28;20473;-81
2023/02/19 05:28:50;;;;;;;566.53;533.77;;;9.40;99.90;;;;;;5058834;28;20447;-81
2023/02/19 05:31:18;;;;;;;593.30;557.73;;;9.40;99.90;;;;;;5058469;28;20453;-80
2023/02/19 05:33:49;;;;;;;603.07;565.97;;;9.40;99.90;;;;;;5058685;28;20466;-82
2023/02/19 05:36:17;;;;;;;565.97;532.67;;;9.30;99.90;;;;;;5057778;28;20862;-80
2023/02/19 05:38:44;;;;;;;595.47;557.90;;;9.30;99.90;;;;;;5059072;28;20444;-81
2023/02/19 05:41:12;;;;;;;609.77;570.50;;;9.30;99.90;;;;;;5053458;28;20447;-81
2023/02/19 05:43:41;;;;;;;619.47;576.40;;;9.20;99.90;;;;;;5057449;28;20471;-81
2023/02/19 05:46:10;;;;;;;647.20;601.20;;;9.20;99.90;;;;;;5058120;28;20818;-84
2023/02/19 05:48:37;;;;;;;637.50;592.70;;;9.20;99.90;;;;;;5059288;28;20475;-82
2023/02/19 05:51:06;;;;;;;646.00;598.50;;;9.10;99.90;;;;;;5058192;28;20451;-83
2023/02/19 05:53:32;;;;;;;629.10;585.40;;;9.10;99.90;;;;;;5058054;28;20475;-81
2023/02/19 05:55:59;;;;;;;630.67;587.60;;;9.10;99.90;;;;;;5058631;28;20461;-81
2023/02/19 05:58:26;;;;;;;627.13;583.17;;;9.10;99.90;;;;;;5058059;28;20444;-82
2023/02/19 06:00:53;;;;;;;625.50;579.13;;;9.20;99.90;;;;;;5057919;28;20455;-81
2023/02/19 06:03:22;;;;;;;639.97;594.97;;;9.10;99.90;;;;;;5057893;28;20471;-81
2023/02/19 06:05:48;;;;;;;630.37;586.77;;;9.10;99.90;;;;;;5057537;28;20447;-82
2023/02/19 06:08:16;;;;;;;619.13;578.03;;;9.10;99.90;;;;;;5058442;28;20893;-82
2023/02/19 06:10:43;;;;;;;620.30;576.90;;;9.10;99.90;;;;;;5058031;28;20458;-82
2023/02/19 06:13:10;;;;;;;635.63;590.80;;;9.10;99.90;;;;;;5058588;28;20475;-81
2023/02/19 06:15:37;;;;;;;638.43;594.57;;;9.00;99.90;;;;;;5058087;28;20451;-82
2023/02/19 06:18:04;;;;;;;638.07;590.97;;;9.00;99.90;;;;;;5059142;28;20452;-82
2023/02/19 06:20:32;;;;;;;635.07;590.67;;;9.10;99.90;;;;;;5057881;28;20451;-82
2023/02/19 06:22:59;;;;;;;635.87;592.17;;;9.00;99.90;;;;;;5042018;28;20495;-83
2023/02/19 06:25:26;;;;;;;628.80;586.93;;;9.00;99.90;;;;;;5056799;28;20466;-82
2023/02/19 06:27:52;;;;;;;612.20;570.97;;;9.10;99.90;;;;;;5058357;28;20467;-81
2023/02/19 06:30:19;;;;;;;617.60;574.90;;;9.00;99.90;;;;;;5057221;28;20461;-82
2023/02/19 06:32:46;;;;;;;627.73;583.17;;;9.00;99.90;;;;;;5057591;28;20474;-81
2023/02/19 06:35:13;;;;;;;638.47;592.93;;;9.00;99.90;;;;;;5057623;28;20526;-82
2023/02/19 06:37:41;;;;;;;639.30;592.27;;;9.00;99.90;;;;;;5058348;28;20450;-82
2023/02/19 06:40:08;;;;;;;629.07;584.40;;;9.00;99.90;;;;;;5057476;28;20462;-83
2023/02/19 06:42:35;;;;;;;627.57;584.10;;;9.00;99.90;;;;;;5055954;28;20479;-79
2023/02/19 06:45:02;;;;;;;625.07;580.07;;;9.00;99.90;;;;;;5054952;28;20840;-80
2023/02/19 06:47:31;;;;;;;637.20;592.20;;;9.00;99.90;;;;;;5054660;28;20471;-80
2023/02/19 06:49:58;;;;;;;618.77;571.97;;;9.00;99.90;;;;;;5054688;28;20474;-80
2023/02/19 06:52:25;;;;;;;634.27;588.53;;;9.00;99.90;;;;;;5054401;28;20471;-79
2023/02/19 06:54:53;;;;;;;631.40;588.50;;;9.10;99.90;;;;;;5053748;28;20451;-80
2023/02/19 06:57:20;;;;;;;629.57;585.30;;;9.00;99.90;;;;;;5051941;28;20452;-78
2023/02/19 06:59:46;;;;;;;624.33;581.70;;;9.00;99.90;;;;;;5055955;28;20455;-80
2023/02/19 07:02:13;;;;;;;636.97;594.30;;;9.10;99.90;;;;;;5056686;28;20452;-81
2023/02/19 07:04:40;;;;;;;636.80;593.10;;;9.10;99.90;;;;;;5056721;28;20452;-80
2023/02/19 07:07:10;;;;;;;638.40;595.10;;;9.10;99.90;;;;;;5056398;28;20479;-82
2023/02/19 07:09:36;;;;;;;637.60;594.23;;;9.10;99.90;;;;;;5056812;28;20455;-79
2023/02/19 07:12:05;;;;;;;640.57;595.97;;;9.00;99.90;;;;;;5055714;28;20451;-81
2023/02/19 07:14:32;;;;;;;635.73;592.47;;;9.10;99.90;;;;;;5056191;28;20458;-80
2023/02/19 07:16:59;;;;;;;639.87;598.37;;;9.00;99.90;;;;;;5055843;28;20460;-80
2023/02/19 07:19:26;;;;;;;569.10;532.63;;;9.10;99.90;;;;;;5055534;28;20456;-79
2023/02/19 07:21:52;;;;;;;596.37;557.03;;;8.90;99.90;;;;;;5052589;28;20459;-78
2023/02/19 07:24:20;;;;;;;600.63;561.17;;;8.90;99.90;;;;;;5052401;28;20470;-79
2023/02/19 07:26:47;;;;;;;630.67;587.43;;;8.80;99.90;;;;;;5052391;28;20459;-79
2023/02/19 07:29:15;;;;;;;641.90;597.53;;;8.90;99.90;;;;;;5052508;28;20475;-78
2023/02/19 07:31:43;;;;;;;636.07;593.90;;;8.90;99.90;;;;;;5053311;28;20459;-79
2023/02/19 07:34:09;;;;;;;625.60;584.00;;;9.00;99.90;;;;;;5053275;28;20487;-79
2023/02/19 07:36:36;;;;;;;630.17;587.30;;;9.00;99.90;;;;;;5052210;28;20451;-80
2023/02/19 07:39:03;;;;;;;627.33;585.03;;;9.00;99.90;;;;;;5053301;28;20458;-79
2023/02/19 07:41:30;;;;;;;626.13;583.17;;;9.00;99.90;;;;;;5053893;28;20443;-80
2023/02/19 07:43:57;;;;;;;626.43;585.07;;;9.00;99.90;;;;;;5053951;28;20479;-81
2023/02/19 07:46:25;;;;;;;623.83;583.07;;;9.00;99.90;;;;;;5054715;28;20447;-79
2023/02/19 07:48:52;;;;;;;615.37;575.07;;;9.00;99.90;;;;;;5055716;28;20494;-79
2023/02/19 07:51:20;;;;;;;572.80;535.67;;;8.90;99.90;;;;;;5054155;28;20447;-80
2023/02/19 07:53:49;;;;;;;610.20;569.43;;;9.00;99.90;;;;;;5053635;28;20467;-81
2023/02/19 07:56:16;;;;;;;624.20;583.10;;;8.90;99.90;;;;;;5054075;28;20509;-80
2023/02/19 07:58:44;;;;;;;622.93;581.63;;;9.00;99.90;;;;;;5054327;28;20451;-79
2023/02/19 08:01:14;;;;;;;617.87;576.87;;;9.00;99.90;;;;;;5054410;28;20996;-80
2023/02/19 08:03:42;;;;;;;619.13;579.13;;;9.00;99.90;;;;;;5054321;28;20467;-80
2023/02/19 08:06:10;;;;;;;622.50;582.60;;;9.00;99.90;;;;;;5056297;28;20489;-79
2023/02/19 08:08:37;;;;;;;612.70;573.37;;;9.00;99.90;;;;;;5058975;28;20501;-81
2023/02/19 08:13:51;;;;;;;628.47;588.70;;;9.10;99.90;;;;;;5058286;28;20517;-83
2023/02/19 08:16:19;;;;;;;626.23;587.10;;;9.20;99.90;;;;;;5057512;28;20456;-81
2023/02/19 08:18:48;;;;;;;608.20;571.40;;;9.20;99.90;;;;;;5041538;28;20453;-81
2023/02/19 08:21:16;;;;;;;614.27;575.60;;;9.20;99.90;;;;;;5060662;28;20984;-82
2023/02/19 08:23:44;;;;;;;625.60;586.83;;;9.20;99.90;;;;;;5060789;28;20478;-82
2023/02/19 08:26:11;;;;;;;631.47;592.60;;;9.30;99.90;;;;;;5059754;28;20941;-82
2023/02/19 08:28:38;;;;;;;619.40;581.67;;;9.40;99.90;;;;;;5059513;28;20475;-82
2023/02/19 08:31:06;;;;;;;598.97;563.57;;;9.40;99.90;;;;;;5059148;28;20447;-82
2023/02/19 08:33:33;;;;;;;592.10;560.57;;;9.50;99.90;;;;;;5059211;28;20478;-84
2023/02/19 08:36:04;;;;;;;602.20;568.27;;;9.50;99.90;;;;;;5059816;28;20972;-82
2023/02/19 08:38:32;;;;;;;602.23;569.53;;;9.60;99.90;;;;;;5059468;28;20450;-81
2023/02/19 08:40:59;;;;;;;598.87;566.13;;;9.60;99.90;;;;;;5059368;28;20506;-82
2023/02/19 08:43:27;;;;;;;584.43;554.23;;;9.60;99.90;;;;;;5059406;28;20479;-81
2023/02/19 08:45:55;;;;;;;601.07;567.93;;;9.60;99.90;;;;;;5058361;28;20455;-80
2023/02/19 08:48:22;;;;;;;596.87;566.17;;;9.70;99.90;;;;;;5059020;28;20475;-86
2023/02/19 08:50:54;;;;;;;597.73;565.67;;;9.60;99.90;;;;;;5059950;28;20866;-83
2023/02/19 08:53:23;;;;;;;564.00;537.07;;;9.70;99.90;;;;;;5046458;28;20502;-81
2023/02/19 08:55:50;;;;;;;551.47;527.30;;;9.70;99.90;;;;;;5040402;28;20520;-82
2023/02/19 08:58:17;;;;;;;556.17;530.13;;;9.70;99.90;;;;;;5040329;28;20483;-82
2023/02/19 09:00:44;;;;;;;526.70;503.23;;;9.70;99.90;;;;;;5040573;28;20458;-82
2023/02/19 09:03:11;;;;;;;506.33;483.70;;;9.90;99.90;;;;;;5039762;28;20476;-81
2023/02/19 09:05:38;;;;;;;506.00;483.73;;;10.10;99.90;;;;;;5048507;28;20529;-82
2023/02/19 09:08:05;;;;;;;465.80;445.40;;;10.10;99.90;;;;;;5059463;28;20525;-81
2023/02/19 09:10:33;;;;;;;414.80;398.00;;;10.10;99.90;;;;;;5060080;28;20463;-82
2023/02/19 09:13:01;;;;;;;452.17;433.37;;;10.10;99.90;;;;;;5059892;28;20475;-82
2023/02/19 09:15:28;;;;;;;429.77;413.07;;;10.20;99.90;;;;;;5059410;28;20456;-84
2023/02/19 09:17:55;;;;;;;368.10;354.17;;;10.40;99.90;;;;;;5059198;28;20529;-82
2023/02/19 09:20:21;;;;;;;322.33;309.83;;;10.40;99.90;;;;;;5058485;28;20447;-81
2023/02/19 09:22:48;;;;;;;394.70;379.20;;;10.30;99.90;;;;;;5058834;28;20471;-81
2023/02/19 09:25:15;;;;;;;328.97;316.83;;;10.40;99.90;;;;;;5058428;28;20823;-79
2023/02/19 09:27:43;;;;;;;198.30;190.70;;;10.40;99.90;;;;;;5056370;28;20454;-81
2023/02/19 09:30:10;;;;;;;349.07;337.20;;;10.40;99.90;;;;;;5056514;28;20455;-80
2023/02/19 09:32:37;;;;;;;159.97;153.77;;;10.30;99.90;;;;;;5055637;28;20474;-80
2023/02/19 09:35:04;;;;;;;405.30;391.30;;;10.20;99.90;;;;;;5056629;28;20451;-81
2023/02/19 09:37:31;;;;;;;369.03;356.97;;;10.20;99.90;;;;;;5056353;28;20452;-80
2023/02/19 09:39:57;;;;;;;411.80;397.80;;;10.10;99.90;;;;;;5057969;28;20957;-81
2023/02/19 09:42:28;;;;;;;455.43;439.37;;;10.10;99.90;;;;;;5057756;28;20479;-81
2023/02/19 09:44:58;;;;;;;356.03;343.63;;;10.20;99.90;;;;;;5057543;28;20945;-81
2023/02/19 09:47:27;;;;;;;334.33;323.10;;;10.30;99.90;;;;;;5058296;28;20455;-81
2023/02/19 09:49:56;;;;;;;365.87;352.97;;;10.30;99.90;;;;;;5058063;28;20478;-81
2023/02/19 09:52:31;;;;;;;383.93;370.33;;;10.50;99.90;;;;;;5058495;28;20471;-80
2023/02/19 09:55:02;;;;;;;399.30;384.97;;;10.60;99.90;;;;;;5058834;28;20443;-81
2023/02/19 09:57:30;;;;;;;461.77;445.37;;;10.50;99.90;;;;;;5058226;28;20814;-80
2023/02/19 10:00:05;;;;;;;427.03;411.90;;;10.40;99.90;;;;;;5058853;28;20447;-81
2023/02/19 10:02:32;;;;;;;431.90;416.40;;;10.40;99.90;;;;;;5057482;28;20479;-81
2023/02/19 10:05:00;;;;;;;508.40;489.00;;;10.00;99.90;;;;;;5058102;28;20447;-82
2023/02/19 10:07:34;;;;;;;498.83;480.37;;;10.00;99.90;;;;;;5058485;28;20546;-81
2023/02/19 10:10:16;;;;;;;482.90;465.80;;;9.90;99.90;;;;;;5057917;28;21004;-81
2023/02/19 10:12:49;;;;;;;469.63;452.77;;;9.90;99.90;;;;;;5058109;28;20841;-81
2023/02/19 10:15:21;;;;;;;534.10;512.90;;;9.80;99.90;;;;;;5057665;28;20481;-82
2023/02/19 10:17:48;;;;;;;513.67;494.27;;;9.70;99.90;;;;;;5057423;28;20454;-81
2023/02/19 10:20:17;;;;;;;531.13;509.03;;;9.60;99.90;;;;;;5058989;28;20455;-81
2023/02/19 10:22:44;;;;;;;572.37;547.07;;;9.50;99.90;;;;;;5059075;28;20507;-81
2023/02/19 10:25:15;;;;;;;592.90;564.00;;;9.80;99.90;;;;;;5059296;28;20451;-81
2023/02/19 10:27:42;;;;;;;590.20;560.60;;;10.00;99.90;;;;;;5057689;28;20451;-81
2023/02/19 10:30:17;;;;;;;512.30;490.43;;;10.20;99.90;;;;;;5059228;28;20471;-82
2023/02/19 10:32:59;;;;;;;526.83;504.37;;;10.10;99.90;;;;;;5050167;28;20482;-81
2023/02/19 10:35:26;;;;;;;505.03;483.80;;;10.20;99.90;;;;;;5051344;28;20436;-82
2023/02/19 10:37:53;;;;;;;461.47;442.63;;;10.10;99.90;;;;;;5056989;28;20458;-82
2023/02/19 10:40:23;;;;;;;496.20;477.30;;;10.00;99.90;;;;;;5045981;28;20459;-81
2023/02/19 10:42:51;;;;;;;555.87;531.67;;;9.90;99.90;;;;;;5039073;28;20476;-81
2023/02/19 10:45:22;;;;;;;590.07;560.63;;;10.00;99.90;;;;;;5042564;28;20833;-82
2023/02/19 10:47:51;;;;;;;570.13;542.33;;;10.30;99.90;;;;;;5057916;28;20439;-81
2023/02/19 10:50:26;;;;;;;544.23;519.83;;;10.60;99.90;;;;;;5053827;28;20485;-83
2023/02/19 10:52:56;;;;;;;518.07;496.13;;;10.80;99.90;;;;;;5052631;28;21025;-81
2023/02/19 10:55:29;;;;;;;452.10;434.53;;;10.90;99.90;;;;;;5054174;28;20455;-82
2023/02/19 10:57:56;;;;;;;311.80;300.50;;;11.00;99.90;;;;;;5060015;28;20444;-82
2023/02/19 11:00:27;;;;;;;89.23;85.33;;;11.00;99.90;;;;;;5054775;28;20497;-82
2023/02/19 11:03:20;;;;;;;46.17;43.53;;;11.00;99.90;;;;;;5054561;28;20762;-82
2023/02/19 11:05:55;;;;;;;28.87;27.27;;;10.90;99.90;;;;;;5050748;28;20498;-83
2023/02/19 11:08:23;;;;;;;94.93;90.43;;;10.90;99.90;;;;;;5051407;28;20486;-84
2023/02/19 11:10:50;;;;;;;29.73;27.43;;;11.10;99.90;;;;;;5050594;28;20462;-83
2023/02/19 11:13:26;;;;;;;32.90;31.10;;;11.00;99.90;;;;;;5051745;28;20482;-83
2023/02/19 11:15:55;;;;;;;32.33;29.93;;;11.00;99.90;;;;;;5043720;28;20482;-84
2023/02/19 11:18:26;;;;;;;94.07;89.60;;;10.90;99.90;;;;;;5060056;28;20449;-83
2023/02/19 11:20:55;;;;;;;134.97;130.03;;;10.80;99.90;;;;;;5051962;28;20452;-82
2023/02/19 11:23:27;;;;;;;191.90;185.13;;;10.80;99.90;;;;;;5052378;28;20477;-83
2023/02/19 11:25:56;;;;;;;210.77;203.37;;;10.70;99.90;;;;;;5059028;28;20969;-84
2023/02/19 11:28:30;;;;;;;174.53;168.37;;;10.80;99.90;;;;;;5058067;28;20859;-82
2023/02/19 11:31:14;;;;;;;160.53;154.33;;;11.00;99.90;;;;;;5058776;28;20458;-83
2023/02/19 11:33:48;;;;;;;133.77;128.60;;;11.30;99.90;;;;;;5049248;28;20479;-81
2023/02/19 11:36:30;;;;;;;57.47;54.87;;;11.40;99.90;;;;;;5056837;28;20443;-82
2023/02/19 11:38:59;;;;;;;83.20;79.23;;;11.40;99.90;;;;;;5055428;28;20451;-82
2023/02/19 11:41:41;;;;;;;66.23;62.63;;;11.50;99.90;;;;;;5054659;28;20443;-81
2023/02/19 11:44:24;;;;;;;57.53;54.63;;;11.60;99.90;;;;;;5060500;28;20483;-81
2023/02/19 11:46:59;;;;;;;17.27;15.60;;;11.70;99.90;;;;;;5059806;28;20466;-82
2023/02/19 11:49:40;;;;;;;21.93;20.40;;;11.70;99.90;;;;;;5061120;28;20486;-81
2023/02/19 11:52:18;;;;;;;18.40;16.83;;;12.10;99.90;;;;;;5040647;28;20436;-81
2023/02/19 11:54:51;;;;;;;24.27;22.60;;;12.60;99.90;;;;;;5057249;28;20439;-85
2023/02/19 11:57:34;;;;;;;17.53;15.93;;;12.60;99.90;;;;;;5061226;28;20455;-81
2023/02/19 12:00:13;;;;;;;10.00;8.10;;;12.40;99.90;;;;;;5051390;28;20439;-81
2023/02/19 12:03:05;;;;;;;7.60;5.17;;;12.30;99.90;;;;;;5061257;28;20478;-81
2023/02/19 12:05:47;;;;;;;9.50;5.10;;;12.40;99.90;;;;;;5048237;28;20542;-83
2023/02/19 12:08:52;;;;;;;9.93;4.30;;;12.40;99.90;;;;;;5061580;28;20447;-82
2023/02/19 12:11:39;;;;;;;12.60;5.93;;;12.70;99.90;;;;;;5029865;28;20914;-82
2023/02/19 12:14:56;;;;;;;6.90;3.40;;;13.40;99.90;;;;;;5058927;28;20481;-82
2023/02/19 12:17:46;;;;;;;12.23;4.83;;;13.00;99.90;;;;;;4999913;28;20456;-82
2023/02/19 12:20:22;;;;;;;8.23;5.07;;;12.80;99.90;;;;;;4999227;28;20450;-82
2023/02/19 12:23:02;;;;;;;14.20;4.30;;;12.70;99.90;;;;;;5047808;28;20478;-83
2023/02/19 12:25:42;;;;;;;5.53;2.93;;;12.40;99.90;;;;;;5060269;28;20457;-83
2023/02/19 12:28:28;;;;;;;5.97;4.20;;;12.10;99.90;;;;;;5061293;28;20471;-82
2023/02/19 12:31:17;;;;;;;8.63;4.13;;;11.90;99.90;;;;;;5060021;28;20986;-83
2023/02/19 12:34:16;;;;;;;8.43;4.07;;;11.70;99.90;;;;;;5060303;28;20467;-83
2023/02/19 12:36:55;;;;;;;13.30;4.70;;;11.60;99.90;;;;;;5048570;28;20459;-82
2023/02/19 12:39:33;;;;;;;8.70;3.90;;;11.50;99.90;;;;;;5041833;28;20805;-81
2023/02/19 12:42:05;;;;;;;6.20;3.10;;;11.40;99.90;;;;;;5040193;28;20467;-81
2023/02/19 12:44:38;;;;;;;7.40;3.33;;;11.10;99.90;;;;;;5040456;28;20440;-82
2023/02/19 12:47:06;;;;;;;14.33;3.80;;;11.20;99.90;;;;;;5058883;28;20442;-82
2023/02/19 12:49:37;;;;;;;9.43;3.47;;;11.30;99.90;;;;;;5075820;28;20857;-82
2023/02/19 12:52:10;;;;;;;13.30;4.90;;;11.50;99.90;;;;;;5059187;28;20459;-82
2023/02/19 12:54:43;;;;;;;9.10;5.30;;;11.60;99.90;;;;;;5059549;28;20455;-83
2023/02/19 12:57:13;;;;;;;11.60;5.73;;;11.70;99.90;;;;;;5057935;28;20456;-81